createdAt,value
2023-01-04T00:00:28.629Z,4.20
2023-01-04T00:02:57.954Z,4.20
2023-01-04T00:05:27.056Z,4.20
2023-01-04T00:07:57.531Z,4.30
2023-01-04T00:10:26.586Z,4.20
2023-01-04T00:12:55.789Z,4.20
2023-01-04T00:15:24.847Z,4.20
2023-01-04T00:17:53.911Z,4.20
2023-01-04T00:20:23.014Z,4.30
2023-01-04T00:22:52.106Z,4.30
2023-01-04T00:25:22.597Z,4.30
2023-01-04T00:27:52.712Z,4.30
2023-01-04T00:30:21.737Z,4.30
2023-01-04T00:32:50.820Z,4.40
2023-01-04T00:35:44.050Z,4.40
2023-01-04T00:38:08.842Z,4.50
2023-01-04T00:40:39.438Z,4.50
2023-01-04T00:43:08.455Z,4.50
2023-01-04T00:45:37.501Z,4.50
2023-01-04T00:48:06.860Z,4.40
2023-01-04T00:50:35.883Z,4.40
2023-01-04T00:53:04.955Z,4.50
2023-01-04T00:55:34.149Z,4.40
2023-01-04T00:58:04.678Z,4.40
2023-01-04T01:00:33.591Z,4.50
2023-01-04T01:03:03.027Z,4.50
2023-01-04T01:05:32.232Z,4.40
2023-01-04T01:08:27.424Z,4.30
2023-01-04T01:10:58.131Z,4.20
2023-01-04T01:13:28.710Z,4.20
2023-01-04T01:15:57.856Z,4.20
2023-01-04T01:18:27.230Z,4.20
2023-01-04T01:20:56.523Z,4.20
2023-01-04T01:23:25.829Z,4.10
2023-01-04T01:25:54.798Z,4.20
2023-01-04T01:28:24.088Z,4.20
2023-01-04T01:30:54.652Z,4.30
2023-01-04T01:33:23.829Z,4.20
2023-01-04T01:35:52.938Z,4.10
2023-01-04T01:38:22.113Z,4.10
2023-01-04T01:40:51.440Z,4.00
2023-01-04T01:43:22.372Z,4.10
2023-01-04T01:45:54.215Z,4.00
2023-01-04T01:48:29.453Z,4.10
2023-01-04T01:51:03.510Z,4.10
2023-01-04T01:53:36.008Z,4.00
2023-01-04T01:56:07.187Z,4.10
2023-01-04T01:58:39.199Z,4.00
2023-01-04T02:01:09.679Z,4.10
2023-01-04T02:03:43.175Z,4.20
2023-01-04T02:06:14.599Z,4.20
2023-01-04T02:08:44.977Z,4.20
2023-01-04T02:14:11.279Z,4.30
2023-01-04T02:16:53.778Z,4.40
2023-01-04T02:19:56.105Z,4.40
2023-01-04T02:23:02.296Z,4.40
2023-01-04T02:26:11.034Z,4.40
2023-01-04T02:29:12.196Z,4.40
2023-01-04T02:31:47.961Z,4.30
2023-01-04T02:34:24.923Z,4.20
2023-01-04T02:37:01.501Z,4.20
2023-01-04T02:39:39.387Z,4.20
2023-01-04T02:42:18.355Z,4.30
2023-01-04T02:44:57.747Z,4.10
2023-01-04T02:47:49.814Z,3.90
2023-01-04T02:50:34.518Z,3.70
2023-01-04T02:53:07.937Z,3.50
2023-01-04T02:55:49.000Z,3.30
2023-01-04T02:58:37.421Z,3.30
2023-01-04T03:01:33.447Z,3.20
2023-01-04T03:04:38.475Z,3.10
2023-01-04T03:07:27.938Z,3.10
2023-01-04T03:10:04.717Z,3.10
2023-01-04T03:12:40.560Z,3.10
2023-01-04T03:15:15.460Z,3.10
2023-01-04T03:17:49.394Z,3.10
2023-01-04T03:20:22.699Z,3.00
2023-01-04T03:23:13.318Z,2.90
2023-01-04T03:26:02.675Z,2.90
2023-01-04T03:28:52.939Z,2.70
2023-01-04T03:31:43.962Z,2.50
2023-01-04T03:34:31.147Z,2.40
2023-01-04T03:37:11.318Z,2.40
2023-01-04T03:40:12.880Z,2.40
2023-01-04T03:43:08.200Z,2.50
2023-01-04T03:46:02.118Z,2.70
2023-01-04T03:48:39.304Z,2.70
2023-01-04T03:51:16.247Z,2.70
2023-01-04T03:53:59.271Z,2.70
2023-01-04T03:56:30.578Z,2.50
2023-01-04T03:59:00.342Z,2.40
2023-01-04T04:01:31.360Z,2.20
2023-01-04T04:04:17.700Z,2.10
2023-01-04T04:07:04.639Z,2.00
2023-01-04T04:09:35.767Z,1.90
2023-01-04T04:12:05.157Z,1.80
2023-01-04T04:14:34.353Z,1.70
2023-01-04T04:17:04.647Z,1.60
2023-01-04T04:19:34.539Z,1.70
2023-01-04T04:22:03.630Z,1.80
2023-01-04T04:24:35.988Z,1.90
2023-01-04T04:27:05.026Z,2.20
2023-01-04T04:29:34.663Z,2.30
2023-01-04T04:32:03.876Z,2.50
2023-01-04T04:34:33.056Z,2.60
2023-01-04T04:37:02.621Z,2.60
2023-01-04T04:39:32.035Z,2.70
2023-01-04T04:42:01.433Z,2.70
2023-01-04T04:44:30.819Z,2.60
2023-01-04T04:46:59.991Z,2.60
2023-01-04T04:49:29.156Z,2.50
2023-01-04T04:51:58.276Z,2.40
2023-01-04T04:54:27.524Z,2.50
2023-01-04T04:56:56.832Z,2.50
2023-01-04T04:59:27.655Z,2.60
2023-01-04T05:01:56.872Z,2.60
2023-01-04T05:04:26.335Z,2.70
2023-01-04T05:06:56.640Z,2.70
2023-01-04T05:09:25.676Z,2.90
2023-01-04T05:12:12.159Z,2.90
2023-01-04T05:14:42.697Z,2.90
2023-01-04T05:17:11.890Z,3.00
2023-01-04T05:19:41.018Z,3.00
2023-01-04T05:22:10.116Z,3.10
2023-01-04T05:24:39.399Z,3.20
2023-01-04T05:27:08.640Z,3.20
2023-01-04T05:29:55.241Z,3.20
2023-01-04T05:32:25.851Z,3.30
2023-01-04T05:34:55.131Z,3.30
2023-01-04T05:37:24.137Z,3.30
2023-01-04T05:39:55.970Z,3.40
2023-01-04T05:42:28.536Z,3.40
2023-01-04T05:44:59.399Z,3.50
2023-01-04T05:47:31.306Z,3.40
2023-01-04T05:50:00.446Z,3.50
2023-01-04T05:52:29.944Z,3.50
2023-01-04T05:54:59.075Z,3.50
2023-01-04T05:57:28.455Z,3.60
2023-01-04T05:59:57.522Z,3.60
2023-01-04T06:02:29.943Z,3.60
2023-01-04T06:05:00.501Z,3.60
2023-01-04T06:07:30.532Z,3.60
2023-01-04T06:09:59.996Z,3.70
2023-01-04T06:12:29.297Z,3.70
2023-01-04T06:14:58.656Z,3.70
2023-01-04T06:17:29.550Z,3.70
2023-01-04T06:19:58.621Z,3.70
2023-01-04T06:22:29.215Z,3.80
2023-01-04T06:24:58.468Z,3.80
2023-01-04T06:27:28.027Z,3.80
2023-01-04T06:29:57.699Z,3.90
2023-01-04T06:32:27.927Z,3.90
2023-01-04T06:34:58.485Z,3.90
2023-01-04T06:37:27.664Z,3.90
2023-01-04T06:39:56.935Z,3.90
2023-01-04T06:42:43.424Z,3.90
2023-01-04T06:45:13.485Z,3.90
2023-01-04T06:47:42.896Z,3.90
2023-01-04T06:50:13.955Z,3.80
2023-01-04T06:52:43.680Z,3.80
2023-01-04T06:55:14.111Z,3.80
2023-01-04T06:57:43.326Z,3.80
2023-01-04T07:00:14.074Z,3.90
2023-01-04T07:03:13.579Z,3.90
2023-01-04T07:05:33.976Z,3.90
2023-01-04T07:08:08.020Z,4.00
2023-01-04T07:10:38.016Z,4.00
2023-01-04T07:13:07.498Z,4.00
2023-01-04T07:15:40.595Z,4.00
2023-01-04T07:18:11.235Z,4.10
2023-01-04T07:20:42.744Z,4.10
2023-01-04T07:23:12.197Z,4.20
2023-01-04T07:25:42.288Z,4.30
2023-01-04T07:28:11.743Z,4.20
2023-01-04T07:30:41.446Z,4.30
2023-01-04T07:33:10.696Z,4.30
2023-01-04T07:35:41.302Z,4.30
2023-01-04T07:38:11.089Z,4.30
2023-01-04T07:40:56.050Z,4.30
2023-01-04T07:43:28.554Z,4.20
2023-01-04T07:45:58.133Z,4.30
2023-01-04T07:48:30.125Z,4.20
2023-01-04T07:51:00.767Z,4.30
2023-01-04T07:53:31.114Z,4.40
2023-01-04T07:56:00.960Z,4.40
2023-01-04T07:58:35.168Z,4.50
2023-01-04T08:01:11.734Z,4.50
2023-01-04T08:03:41.282Z,4.50
2023-01-04T08:06:14.223Z,4.50
2023-01-04T08:08:43.561Z,4.40
2023-01-04T08:11:14.947Z,4.40
2023-01-04T08:13:44.529Z,4.50
2023-01-04T08:16:22.167Z,4.50
2023-01-04T08:18:55.030Z,4.50
2023-01-04T08:21:30.232Z,4.60
2023-01-04T08:24:00.483Z,4.40
2023-01-04T08:26:32.316Z,4.40
2023-01-04T08:29:01.884Z,4.40
2023-01-04T08:31:33.570Z,4.40
2023-01-04T08:34:06.457Z,4.40
2023-01-04T08:36:45.852Z,4.30
2023-01-04T08:39:15.589Z,4.10
2023-01-04T08:44:44.875Z,4.10
2023-01-04T08:47:14.484Z,4.30
2023-01-04T08:49:44.065Z,4.30
2023-01-04T08:52:16.340Z,4.20
2023-01-04T08:54:46.155Z,4.30
2023-01-04T08:57:15.521Z,3.90
2023-01-04T08:59:44.758Z,3.90
2023-01-04T09:02:22.767Z,4.00
2023-01-04T09:04:54.730Z,4.20
2023-01-04T09:07:26.440Z,4.40
2023-01-04T09:09:56.063Z,4.50
2023-01-04T09:12:25.589Z,4.40
2023-01-04T09:14:54.780Z,4.40
2023-01-04T09:17:26.104Z,4.30
2023-01-04T09:19:56.871Z,4.30
2023-01-04T09:22:28.585Z,4.20
2023-01-04T09:24:58.478Z,4.30
2023-01-04T09:27:27.773Z,4.20
2023-01-04T09:29:57.003Z,4.30
2023-01-04T09:32:26.256Z,4.20
2023-01-04T09:34:56.755Z,4.10
2023-01-04T09:37:27.288Z,4.20
2023-01-04T09:39:56.421Z,4.20
2023-01-04T09:42:37.168Z,4.10
2023-01-04T09:45:25.464Z,4.20
2023-01-04T09:48:00.254Z,4.20
2023-01-04T09:50:34.225Z,4.40
2023-01-04T09:53:14.303Z,4.30
2023-01-04T09:55:48.563Z,4.50
2023-01-04T09:58:26.786Z,4.50
2023-01-04T10:01:03.556Z,4.50
2023-01-04T10:03:36.482Z,4.50
2023-01-04T10:06:09.555Z,4.50
2023-01-04T10:08:42.826Z,4.60
2023-01-04T10:11:28.298Z,4.60
2023-01-04T10:14:20.548Z,4.80
2023-01-04T10:17:35.514Z,4.80
2023-01-04T10:23:10.621Z,4.90
2023-01-04T10:25:47.378Z,5.00
2023-01-04T10:28:30.814Z,4.90
2023-01-04T10:31:40.695Z,5.00
2023-01-04T10:34:06.680Z,5.10
2023-01-04T10:36:36.706Z,5.10
2023-01-04T10:39:12.595Z,5.20
2023-01-04T10:41:52.169Z,5.10
2023-01-04T10:44:31.065Z,5.10
2023-01-04T10:47:09.612Z,5.20
2023-01-04T10:49:46.197Z,5.20
2023-01-04T10:52:21.407Z,5.30
2023-01-04T10:54:57.926Z,5.20
2023-01-04T10:57:36.134Z,5.30
2023-01-04T11:00:09.169Z,5.30
2023-01-04T11:02:45.433Z,5.30
2023-01-04T11:05:21.212Z,5.10
2023-01-04T11:07:56.073Z,5.10
2023-01-04T11:10:30.349Z,5.00
2023-01-04T11:13:01.340Z,4.80
2023-01-04T11:15:31.140Z,4.80
2023-01-04T11:18:04.784Z,4.60
2023-01-04T11:20:38.119Z,4.60
2023-01-04T11:23:14.680Z,4.60
2023-01-04T11:25:55.539Z,4.60
2023-01-04T11:28:31.760Z,4.60
2023-01-04T11:31:07.177Z,4.60
2023-01-04T11:33:55.632Z,4.70
2023-01-04T11:36:40.320Z,4.80
2023-01-04T11:39:21.651Z,4.90
2023-01-04T11:42:02.965Z,4.90
2023-01-04T11:44:35.663Z,4.80
2023-01-04T11:47:19.885Z,4.80
2023-01-04T11:49:49.866Z,4.80
2023-01-04T11:52:32.710Z,4.70
2023-01-04T11:55:24.732Z,4.60
2023-01-04T11:58:09.318Z,4.60
2023-01-04T12:00:40.605Z,4.50
2023-01-04T12:03:17.502Z,4.50
2023-01-04T12:05:47.113Z,4.60
2023-01-04T12:08:32.848Z,4.60
2023-01-04T12:11:03.581Z,4.60
2023-01-04T12:13:34.345Z,4.70
2023-01-04T12:16:14.316Z,4.60
2023-01-04T12:18:45.466Z,4.60
2023-01-04T12:21:20.263Z,4.70
2023-01-04T12:23:50.194Z,4.60
2023-01-04T12:26:21.156Z,4.60
2023-01-04T12:28:54.043Z,4.60
2023-01-04T12:31:33.016Z,4.60
2023-01-04T12:34:50.088Z,4.60
2023-01-04T12:37:49.849Z,4.70
2023-01-04T12:40:56.703Z,4.70
2023-01-04T12:43:28.570Z,4.60
2023-01-04T12:47:01.221Z,4.60
2023-01-04T12:49:54.326Z,4.50
2023-01-04T12:53:02.417Z,4.50
2023-01-04T12:56:01.137Z,4.50
2023-01-04T12:59:26.101Z,4.50
2023-01-04T13:02:22.776Z,4.30
2023-01-04T13:05:17.019Z,4.20
2023-01-04T13:07:46.762Z,4.20
2023-01-04T13:10:23.563Z,4.20
2023-01-04T13:13:08.865Z,4.20
2023-01-04T13:15:50.444Z,4.20
2023-01-04T13:18:39.008Z,4.10
2023-01-04T13:21:14.742Z,4.00
2023-01-04T13:23:51.129Z,4.00
2023-01-04T13:26:38.571Z,4.00
2023-01-04T13:29:16.921Z,4.00
2023-01-04T13:31:58.408Z,4.00
2023-01-04T13:34:34.286Z,4.00
2023-01-04T13:37:10.461Z,3.90
2023-01-04T13:39:41.534Z,3.90
2023-01-04T13:42:20.330Z,3.90
2023-01-04T13:45:27.820Z,3.90
2023-01-04T13:48:00.168Z,3.90
2023-01-04T13:50:38.174Z,3.90
2023-01-04T13:53:09.154Z,3.90
2023-01-04T13:55:39.432Z,3.90
2023-01-04T13:58:17.704Z,4.00
2023-01-04T14:00:51.798Z,4.00
2023-01-04T14:03:32.970Z,4.00
2023-01-04T14:06:20.121Z,3.90
2023-01-04T14:08:55.826Z,3.90
2023-01-04T14:11:42.352Z,3.90
2023-01-04T14:14:33.092Z,3.90
2023-01-04T14:17:28.427Z,4.00
2023-01-04T14:19:58.611Z,4.00
2023-01-04T14:22:38.726Z,4.00
2023-01-04T14:25:38.388Z,4.00
2023-01-04T14:28:28.159Z,4.00
2023-01-04T14:31:13.224Z,3.90
2023-01-04T14:33:46.236Z,4.00
2023-01-04T14:36:20.374Z,4.00
2023-01-04T14:39:02.686Z,4.00
2023-01-04T14:41:35.171Z,4.00
2023-01-04T14:44:16.097Z,4.00
2023-01-04T14:46:50.147Z,4.00
2023-01-04T14:49:20.637Z,4.00
2023-01-04T14:51:51.512Z,4.00
2023-01-04T14:54:25.336Z,4.00
2023-01-04T14:56:55.609Z,4.00
2023-01-04T14:59:25.944Z,4.10
2023-01-04T15:01:56.277Z,4.10
2023-01-04T15:04:25.710Z,4.10
2023-01-04T15:06:57.486Z,4.10
2023-01-04T15:09:28.946Z,4.10
2023-01-04T15:11:58.812Z,4.20
2023-01-04T15:14:28.092Z,4.20
2023-01-04T15:16:57.405Z,4.30
2023-01-04T15:19:26.934Z,4.30
2023-01-04T15:21:56.695Z,4.30
2023-01-04T15:24:27.418Z,4.30
2023-01-04T15:26:57.903Z,4.40
2023-01-04T15:29:27.404Z,4.30
2023-01-04T15:31:56.648Z,4.20
2023-01-04T15:34:25.835Z,4.20
2023-01-04T15:36:56.382Z,4.20
2023-01-04T15:39:28.204Z,4.30
2023-01-04T15:42:14.771Z,4.30
2023-01-04T15:44:46.176Z,4.30
2023-01-04T15:47:15.541Z,4.30
2023-01-04T15:49:44.786Z,4.30
2023-01-04T15:52:14.163Z,4.30
2023-01-04T15:54:44.900Z,4.30
2023-01-04T15:57:14.233Z,4.30
2023-01-04T15:59:43.468Z,4.40
2023-01-04T16:02:13.746Z,4.40
2023-01-04T16:04:43.083Z,4.40
2023-01-04T16:07:12.307Z,4.50
2023-01-04T16:09:41.600Z,4.40
2023-01-04T16:12:29.531Z,4.40
2023-01-04T16:14:58.993Z,4.40
2023-01-04T16:17:28.459Z,4.40
2023-01-04T16:19:58.720Z,4.40
2023-01-04T16:22:28.277Z,4.40
2023-01-04T16:25:10.337Z,4.40
2023-01-04T16:27:41.892Z,4.30
2023-01-04T16:30:14.197Z,4.30
2023-01-04T16:32:44.836Z,4.30
2023-01-04T16:35:14.305Z,4.30
2023-01-04T16:37:43.624Z,4.30
2023-01-04T16:40:14.199Z,4.20
2023-01-04T16:42:51.070Z,4.30
2023-01-04T16:45:20.819Z,4.30
2023-01-04T16:47:51.764Z,4.20
2023-01-04T16:50:21.415Z,4.30
2023-01-04T16:52:51.952Z,4.20
2023-01-04T16:55:24.112Z,4.10
2023-01-04T16:57:55.060Z,4.10
2023-01-04T17:00:24.338Z,4.10
2023-01-04T17:02:53.773Z,4.20
2023-01-04T17:05:23.192Z,4.10
2023-01-04T17:07:53.114Z,4.20
2023-01-04T17:10:27.573Z,4.20
2023-01-04T17:13:01.971Z,4.20
2023-01-04T17:15:44.936Z,4.10
2023-01-04T17:18:15.680Z,4.20
2023-01-04T17:20:45.034Z,4.20
2023-01-04T17:23:14.266Z,4.20
2023-01-04T17:25:43.641Z,4.20
2023-01-04T17:28:19.794Z,4.20
2023-01-04T17:30:52.500Z,4.10
2023-01-04T17:33:21.957Z,4.10
2023-01-04T17:35:54.757Z,4.20
2023-01-04T17:38:26.489Z,4.20
2023-01-04T17:41:09.340Z,4.20
2023-01-04T17:43:41.335Z,4.20
2023-01-04T17:46:16.391Z,4.20
2023-01-04T17:49:10.355Z,4.20
2023-01-04T17:51:43.591Z,4.20
2023-01-04T17:54:16.223Z,4.20
2023-01-04T17:56:50.910Z,4.20
2023-01-04T17:59:22.389Z,4.20
2023-01-04T18:01:56.793Z,4.20
2023-01-04T18:04:27.573Z,4.20
2023-01-04T18:06:58.916Z,4.20
2023-01-04T18:09:29.098Z,4.20
2023-01-04T18:12:00.528Z,4.10
2023-01-04T18:14:32.959Z,4.20
2023-01-04T18:17:03.759Z,4.20
2023-01-04T18:19:34.017Z,4.20
2023-01-04T18:22:04.018Z,4.20
2023-01-04T18:24:37.788Z,4.20
2023-01-04T18:27:26.155Z,4.30
2023-01-04T18:30:00.428Z,4.20
2023-01-04T18:32:31.262Z,4.30
2023-01-04T18:35:06.026Z,4.30
2023-01-04T18:37:43.277Z,4.30
2023-01-04T18:40:16.109Z,4.20
2023-01-04T18:42:57.725Z,4.30
2023-01-04T18:45:37.132Z,4.30
2023-01-04T18:48:09.778Z,4.30
2023-01-04T18:50:40.350Z,4.40
2023-01-04T18:53:13.201Z,4.40
2023-01-04T18:55:43.921Z,4.40
2023-01-04T18:58:14.300Z,4.30
2023-01-04T19:00:46.826Z,4.40
2023-01-04T19:03:18.682Z,4.40
2023-01-04T19:05:50.800Z,4.40
2023-01-04T19:08:20.845Z,4.40
2023-01-04T19:10:50.926Z,4.40
2023-01-04T19:13:22.549Z,4.40
2023-01-04T19:15:56.040Z,4.50
2023-01-04T19:18:32.122Z,4.50
2023-01-04T19:21:03.950Z,4.50
2023-01-04T19:23:37.255Z,4.60
2023-01-04T19:26:10.888Z,4.50
2023-01-04T19:28:40.477Z,4.60
2023-01-04T19:31:13.111Z,4.60
2023-01-04T19:33:44.081Z,4.70
2023-01-04T19:36:18.479Z,4.60
2023-01-04T19:38:48.912Z,4.70
2023-01-04T19:41:31.036Z,4.70
2023-01-04T19:44:06.596Z,4.70
2023-01-04T19:46:41.285Z,4.70
2023-01-04T19:49:15.848Z,4.80
2023-01-04T19:51:48.706Z,4.80
2023-01-04T19:54:25.053Z,4.90
2023-01-04T19:56:58.336Z,4.90
2023-01-04T19:59:28.725Z,4.90
2023-01-04T20:02:04.951Z,4.90
2023-01-04T20:04:36.373Z,5.00
2023-01-04T20:07:09.760Z,5.00
2023-01-04T20:09:44.643Z,5.00
2023-01-04T20:12:18.097Z,5.10
2023-01-04T20:14:50.804Z,5.00
2023-01-04T20:17:25.023Z,5.10
2023-01-04T20:19:57.785Z,5.20
2023-01-04T20:22:30.563Z,5.20
2023-01-04T20:25:02.762Z,5.30
2023-01-04T20:27:32.831Z,5.30
2023-01-04T20:30:05.084Z,5.30
2023-01-04T20:32:39.809Z,5.40
2023-01-04T20:35:11.585Z,5.40
2023-01-04T20:37:43.129Z,5.50
2023-01-04T20:40:13.923Z,5.50
2023-01-04T20:43:01.155Z,5.50
2023-01-04T20:45:31.361Z,5.50
2023-01-04T20:48:06.540Z,5.60
2023-01-04T20:50:38.079Z,5.50
2023-01-04T20:53:09.122Z,5.60
2023-01-04T20:55:42.921Z,5.60
2023-01-04T20:58:16.320Z,5.70
2023-01-04T21:00:47.601Z,5.70
2023-01-04T21:03:19.160Z,5.70
2023-01-04T21:05:49.852Z,5.80
2023-01-04T21:08:19.508Z,5.80
2023-01-04T21:10:50.531Z,5.80
2023-01-04T21:13:21.601Z,5.80
2023-01-04T21:15:53.248Z,5.90
2023-01-04T21:18:25.403Z,6.00
2023-01-04T21:20:55.800Z,6.00
2023-01-04T21:23:28.668Z,6.00
2023-01-04T21:26:00.122Z,6.00
2023-01-04T21:28:30.879Z,6.00
2023-01-04T21:31:02.060Z,6.00
2023-01-04T21:33:35.647Z,6.00
2023-01-04T21:36:12.920Z,6.00
2023-01-04T21:38:42.691Z,6.10
2023-01-04T21:41:15.416Z,6.00
2023-01-04T21:43:49.909Z,6.10
2023-01-04T21:46:22.523Z,6.20
2023-01-04T21:48:56.718Z,6.20
2023-01-04T21:51:27.790Z,6.30
2023-01-04T21:53:57.450Z,6.20
2023-01-04T21:56:27.726Z,6.30
2023-01-04T21:58:57.369Z,6.30
2023-01-04T22:01:35.103Z,6.30
2023-01-04T22:04:07.959Z,6.30
2023-01-04T22:06:42.131Z,6.40
2023-01-04T22:09:12.403Z,6.30
2023-01-04T22:11:43.692Z,6.30
2023-01-04T22:14:13.195Z,6.30
2023-01-04T22:16:42.310Z,6.40
2023-01-04T22:19:14.689Z,6.40
2023-01-04T22:21:44.910Z,6.40
2023-01-04T22:24:15.432Z,6.50
2023-01-04T22:26:48.661Z,6.50
2023-01-04T22:29:19.552Z,6.60
2023-01-04T22:31:49.314Z,6.60
2023-01-04T22:34:20.441Z,6.60
2023-01-04T22:36:50.261Z,6.70
2023-01-04T22:39:19.346Z,6.80
2023-01-04T22:41:49.431Z,6.80
2023-01-04T22:44:18.715Z,6.70
2023-01-04T22:46:48.498Z,6.80
2023-01-04T22:49:19.599Z,6.90
2023-01-04T22:51:48.824Z,6.90
2023-01-04T22:54:19.799Z,6.90
2023-01-04T22:56:49.703Z,6.90
2023-01-04T22:59:18.955Z,7.00
2023-01-04T23:01:49.492Z,7.00
2023-01-04T23:04:21.552Z,7.10
2023-01-04T23:06:52.664Z,7.10
2023-01-04T23:09:22.082Z,7.20
2023-01-04T23:11:51.196Z,7.30
2023-01-04T23:14:20.311Z,7.30
2023-01-04T23:16:49.559Z,7.30
2023-01-04T23:19:20.482Z,7.30
2023-01-04T23:21:49.953Z,7.30
2023-01-04T23:24:19.563Z,7.40
2023-01-04T23:26:48.830Z,7.40
2023-01-04T23:29:18.116Z,7.50
2023-01-04T23:31:50.368Z,7.40
2023-01-04T23:34:20.999Z,7.40
2023-01-04T23:36:50.212Z,7.50
2023-01-04T23:39:20.918Z,7.50
2023-01-04T23:41:55.147Z,7.50
2023-01-04T23:44:27.581Z,7.50
2023-01-04T23:46:59.772Z,7.50
2023-01-04T23:49:32.455Z,7.60
2023-01-04T23:52:07.869Z,7.60
2023-01-04T23:54:38.327Z,7.60
2023-01-04T23:57:07.549Z,7.50
2023-01-04T23:59:36.929Z,7.50
